Etusivu
METAR-TAF:

METAR-TAF

Lentoasemat :

Laredo, Texas, Yhdysvallat

Leveyspiiri: 27-33N, Pituuspiiri: 099-28W, korkeus merenpinnasta: 155 m

Tämänhetkinen sää

Tämä raportti tehtiin 17 minuuttia sitten, kello 00.56 UTC
Tuuli 15 kn idästä
Lämpötila 37°C
Kosteus 40%
Ilmanpaine 1009 hPa
Näkyvyys: 16.1 km
Hajanaisia pilviä 11000 ft:n korkeudessa

METAR: KLRD 150056Z 10015KT 10SM SCT110 37/21 A2980 RMK AO2 SLP085 T03670211

Aika: 20:13 (01:13 UTC)

Sääennuste

Tämä raportti tehtiin 1 tunti ja 48 minuuttia sitten, kello 23.25 UTC
Ennuste voimassa 15. päivästä klo 00 UTC - 15. päivään klo 24 UTC
Tuuli 11 kn idästä/kaakosta
Näkyvyys: 10 km
Hajonneita pilviä 25000 ft:n korkeudessa
Ajoittain
15. päivästä klo 01 UTC - 15. päivään klo 05 UTC
Tuuli 14 kn idästä/kaakosta puuskistuen 20 kn:hen

TAF: KLRD 142325Z 1500/1524 12011KT P6SM BKN250 TEMPO 1501/1505 12014G20KT

Säähavainnot ja -ennusteet yli 4000 lentoasemalta (METAR- ja TAF-raportit).

Käytössä olevat sääasemat on merkitty karttaan keltaisilla ja punaisilla pisteillä.

Aseta hiiri pisteen päälle nähdäksesi sääaseman nimen.

Klikkaa sitten nähdäksesi säähavainnot ja -ennusteet.

Kartan vaihtaminen: klikkaa mustalla rastilla varustettuja vihreitä pisteitä, niin voit zoomata sisään; viivalla varustettua vihreää pistettä, niin voit zoomata ulos tai vihreitä nuolia, niin pääset viereisille kartoille.


METAR-TAF: